sensor_id;sensor_type;location;lat;lon;timestamp;temperature;humidity
16980;DHT22;42288;52.182;21.156;2023-02-17T00:02:24;6.60;99.90
16980;DHT22;42288;52.182;21.156;2023-02-17T00:04:52;6.80;99.90
16980;DHT22;42288;52.182;21.156;2023-02-17T00:07:17;6.90;99.90
16980;DHT22;42288;52.182;21.156;2023-02-17T00:09:43;7.00;99.90
16980;DHT22;42288;52.182;21.156;2023-02-17T00:12:09;6.90;99.90
16980;DHT22;42288;52.182;21.156;2023-02-17T00:14:34;6.70;99.90
16980;DHT22;42288;52.182;21.156;2023-02-17T00:17:00;6.60;99.90
16980;DHT22;42288;52.182;21.156;2023-02-17T00:19:26;6.70;99.90
16980;DHT22;42288;52.182;21.156;2023-02-17T00:21:54;6.90;99.90
16980;DHT22;42288;52.182;21.156;2023-02-17T00:24:20;6.90;99.90
16980;DHT22;42288;52.182;21.156;2023-02-17T00:26:46;7.00;99.90
16980;DHT22;42288;52.182;21.156;2023-02-17T00:29:12;7.10;99.90
16980;DHT22;42288;52.182;21.156;2023-02-17T00:31:38;7.20;99.90
16980;DHT22;42288;52.182;21.156;2023-02-17T00:34:03;7.10;99.90
16980;DHT22;42288;52.182;21.156;2023-02-17T00:36:29;7.10;99.90
16980;DHT22;42288;52.182;21.156;2023-02-17T00:38:55;7.30;99.90
16980;DHT22;42288;52.182;21.156;2023-02-17T00:41:22;7.30;99.70
16980;DHT22;42288;52.182;21.156;2023-02-17T00:43:48;7.20;99.70
16980;DHT22;42288;52.182;21.156;2023-02-17T00:46:15;7.00;99.90
16980;DHT22;42288;52.182;21.156;2023-02-17T00:48:41;6.90;99.90
16980;DHT22;42288;52.182;21.156;2023-02-17T00:51:07;7.00;99.90
16980;DHT22;42288;52.182;21.156;2023-02-17T00:53:33;7.30;99.90
16980;DHT22;42288;52.182;21.156;2023-02-17T00:55:58;6.70;99.80
16980;DHT22;42288;52.182;21.156;2023-02-17T00:58:25;7.00;99.90
16980;DHT22;42288;52.182;21.156;2023-02-17T01:00:50;7.00;99.90
16980;DHT22;42288;52.182;21.156;2023-02-17T01:03:17;7.00;99.90
16980;DHT22;42288;52.182;21.156;2023-02-17T01:05:45;7.00;99.90
16980;DHT22;42288;52.182;21.156;2023-02-17T01:08:11;7.20;99.90
16980;DHT22;42288;52.182;21.156;2023-02-17T01:10:42;7.30;99.60
16980;DHT22;42288;52.182;21.156;2023-02-17T01:13:08;7.10;99.70
16980;DHT22;42288;52.182;21.156;2023-02-17T01:15:39;7.20;99.50
16980;DHT22;42288;52.182;21.156;2023-02-17T01:18:05;7.30;99.90
16980;DHT22;42288;52.182;21.156;2023-02-17T01:20:34;7.30;99.80
16980;DHT22;42288;52.182;21.156;2023-02-17T01:23:00;7.20;99.50
16980;DHT22;42288;52.182;21.156;2023-02-17T01:25:26;7.40;99.60
16980;DHT22;42288;52.182;21.156;2023-02-17T01:27:52;7.50;99.40
16980;DHT22;42288;52.182;21.156;2023-02-17T01:30:17;7.60;99.20
16980;DHT22;42288;52.182;21.156;2023-02-17T01:32:43;7.60;99.10
16980;DHT22;42288;52.182;21.156;2023-02-17T01:35:09;7.70;98.80
16980;DHT22;42288;52.182;21.156;2023-02-17T01:37:34;7.70;98.70
16980;DHT22;42288;52.182;21.156;2023-02-17T01:40:00;7.60;99.00
16980;DHT22;42288;52.182;21.156;2023-02-17T01:42:25;7.50;99.00
16980;DHT22;42288;52.182;21.156;2023-02-17T01:48:05;7.10;99.70
16980;DHT22;42288;52.182;21.156;2023-02-17T01:50:36;7.00;99.90
16980;DHT22;42288;52.182;21.156;2023-02-17T01:53:05;7.20;99.90
16980;DHT22;42288;52.182;21.156;2023-02-17T01:55:33;7.20;99.90
16980;DHT22;42288;52.182;21.156;2023-02-17T01:58:00;6.80;99.90
16980;DHT22;42288;52.182;21.156;2023-02-17T02:00:27;7.20;99.90
16980;DHT22;42288;52.182;21.156;2023-02-17T02:02:56;7.20;99.80
16980;DHT22;42288;52.182;21.156;2023-02-17T02:05:22;7.10;99.70
16980;DHT22;42288;52.182;21.156;2023-02-17T02:07:48;7.40;99.80
16980;DHT22;42288;52.182;21.156;2023-02-17T02:10:16;7.40;99.60
16980;DHT22;42288;52.182;21.156;2023-02-17T02:12:43;7.40;99.70
16980;DHT22;42288;52.182;21.156;2023-02-17T02:15:15;7.50;99.30
16980;DHT22;42288;52.182;21.156;2023-02-17T02:21:02;7.60;98.80
16980;DHT22;42288;52.182;21.156;2023-02-17T02:31:48;7.50;99.30
16980;DHT22;42288;52.182;21.156;2023-02-17T02:34:44;7.50;99.40
16980;DHT22;42288;52.182;21.156;2023-02-17T02:37:16;7.20;99.30
16980;DHT22;42288;52.182;21.156;2023-02-17T02:39:49;7.00;99.70
16980;DHT22;42288;52.182;21.156;2023-02-17T02:42:17;7.20;99.90
16980;DHT22;42288;52.182;21.156;2023-02-17T02:44:44;7.40;99.90
16980;DHT22;42288;52.182;21.156;2023-02-17T02:47:48;7.50;99.70
16980;DHT22;42288;52.182;21.156;2023-02-17T02:50:18;7.90;99.00
16980;DHT22;42288;52.182;21.156;2023-02-17T02:58:34;7.90;98.90
16980;DHT22;42288;52.182;21.156;2023-02-17T03:01:16;7.70;99.30
16980;DHT22;42288;52.182;21.156;2023-02-17T03:04:09;8.00;98.80
16980;DHT22;42288;52.182;21.156;2023-02-17T03:06:43;8.00;98.90
16980;DHT22;42288;52.182;21.156;2023-02-17T03:09:13;8.00;98.40
16980;DHT22;42288;52.182;21.156;2023-02-17T03:11:40;8.00;98.70
16980;DHT22;42288;52.182;21.156;2023-02-17T03:14:12;8.00;98.90
16980;DHT22;42288;52.182;21.156;2023-02-17T03:16:39;8.00;98.90
16980;DHT22;42288;52.182;21.156;2023-02-17T03:19:06;7.90;99.10
16980;DHT22;42288;52.182;21.156;2023-02-17T03:21:46;7.60;99.40
16980;DHT22;42288;52.182;21.156;2023-02-17T03:24:13;7.70;99.80
16980;DHT22;42288;52.182;21.156;2023-02-17T03:26:39;7.70;99.80
16980;DHT22;42288;52.182;21.156;2023-02-17T03:29:04;7.90;99.30
16980;DHT22;42288;52.182;21.156;2023-02-17T03:31:30;7.70;99.40
16980;DHT22;42288;52.182;21.156;2023-02-17T03:33:56;7.60;99.70
16980;DHT22;42288;52.182;21.156;2023-02-17T03:36:22;7.70;99.90
16980;DHT22;42288;52.182;21.156;2023-02-17T03:38:47;7.90;99.90
16980;DHT22;42288;52.182;21.156;2023-02-17T03:41:13;7.70;99.90
16980;DHT22;42288;52.182;21.156;2023-02-17T03:43:38;7.80;99.90
16980;DHT22;42288;52.182;21.156;2023-02-17T03:46:05;7.70;99.90
16980;DHT22;42288;52.182;21.156;2023-02-17T03:48:34;7.70;99.90
16980;DHT22;42288;52.182;21.156;2023-02-17T03:51:12;7.80;99.90
16980;DHT22;42288;52.182;21.156;2023-02-17T03:53:39;7.90;99.90
16980;DHT22;42288;52.182;21.156;2023-02-17T03:56:05;8.00;99.90
16980;DHT22;42288;52.182;21.156;2023-02-17T03:58:30;8.20;99.90
16980;DHT22;42288;52.182;21.156;2023-02-17T04:00:56;8.10;99.90
16980;DHT22;42288;52.182;21.156;2023-02-17T04:03:21;8.10;99.90
16980;DHT22;42288;52.182;21.156;2023-02-17T04:05:47;8.20;99.90
16980;DHT22;42288;52.182;21.156;2023-02-17T04:08:12;8.00;99.80
16980;DHT22;42288;52.182;21.156;2023-02-17T04:10:38;7.90;99.90
16980;DHT22;42288;52.182;21.156;2023-02-17T04:13:03;7.60;99.90
16980;DHT22;42288;52.182;21.156;2023-02-17T04:15:29;7.70;99.90
16980;DHT22;42288;52.182;21.156;2023-02-17T04:17:55;7.80;99.90
16980;DHT22;42288;52.182;21.156;2023-02-17T04:20:22;7.60;99.90
16980;DHT22;42288;52.182;21.156;2023-02-17T04:22:48;7.70;99.90
16980;DHT22;42288;52.182;21.156;2023-02-17T04:25:14;7.30;99.90
16980;DHT22;42288;52.182;21.156;2023-02-17T04:27:39;7.40;99.90
16980;DHT22;42288;52.182;21.156;2023-02-17T04:30:08;7.00;99.90
16980;DHT22;42288;52.182;21.156;2023-02-17T04:32:33;7.20;99.90
16980;DHT22;42288;52.182;21.156;2023-02-17T04:34:59;7.30;99.90
16980;DHT22;42288;52.182;21.156;2023-02-17T04:37:25;7.00;99.90
16980;DHT22;42288;52.182;21.156;2023-02-17T04:39:50;7.10;99.90
16980;DHT22;42288;52.182;21.156;2023-02-17T04:42:16;7.20;99.90
16980;DHT22;42288;52.182;21.156;2023-02-17T04:44:41;7.40;99.90
16980;DHT22;42288;52.182;21.156;2023-02-17T04:47:07;7.30;99.90
16980;DHT22;42288;52.182;21.156;2023-02-17T04:49:33;7.50;99.90
16980;DHT22;42288;52.182;21.156;2023-02-17T04:51:58;7.70;99.90
16980;DHT22;42288;52.182;21.156;2023-02-17T04:54:24;7.70;99.90
16980;DHT22;42288;52.182;21.156;2023-02-17T04:56:49;7.40;99.90
16980;DHT22;42288;52.182;21.156;2023-02-17T04:59:15;7.40;99.90
16980;DHT22;42288;52.182;21.156;2023-02-17T05:01:40;7.20;99.90
16980;DHT22;42288;52.182;21.156;2023-02-17T05:04:06;7.30;99.90
16980;DHT22;42288;52.182;21.156;2023-02-17T05:06:32;7.40;99.90
16980;DHT22;42288;52.182;21.156;2023-02-17T05:08:57;7.50;99.90
16980;DHT22;42288;52.182;21.156;2023-02-17T05:11:23;7.70;99.90
16980;DHT22;42288;52.182;21.156;2023-02-17T05:13:49;8.00;99.90
16980;DHT22;42288;52.182;21.156;2023-02-17T05:16:14;8.00;99.90
16980;DHT22;42288;52.182;21.156;2023-02-17T05:18:40;7.70;99.90
16980;DHT22;42288;52.182;21.156;2023-02-17T05:21:05;7.50;99.90
16980;DHT22;42288;52.182;21.156;2023-02-17T05:23:31;7.40;99.90
16980;DHT22;42288;52.182;21.156;2023-02-17T05:25:56;7.50;99.90
16980;DHT22;42288;52.182;21.156;2023-02-17T05:28:22;7.60;99.90
16980;DHT22;42288;52.182;21.156;2023-02-17T05:30:49;7.30;99.90
16980;DHT22;42288;52.182;21.156;2023-02-17T05:33:14;7.10;99.90
16980;DHT22;42288;52.182;21.156;2023-02-17T05:35:40;6.90;99.90
16980;DHT22;42288;52.182;21.156;2023-02-17T05:38:05;7.10;99.90
16980;DHT22;42288;52.182;21.156;2023-02-17T05:40:31;7.10;99.90
16980;DHT22;42288;52.182;21.156;2023-02-17T05:42:57;7.40;99.90
16980;DHT22;42288;52.182;21.156;2023-02-17T05:45:22;7.50;99.90
16980;DHT22;42288;52.182;21.156;2023-02-17T05:47:48;7.70;99.90
16980;DHT22;42288;52.182;21.156;2023-02-17T05:50:14;7.40;99.90
16980;DHT22;42288;52.182;21.156;2023-02-17T05:52:39;7.40;99.90
16980;DHT22;42288;52.182;21.156;2023-02-17T05:55:05;7.50;99.90
16980;DHT22;42288;52.182;21.156;2023-02-17T05:57:31;7.50;99.90
16980;DHT22;42288;52.182;21.156;2023-02-17T05:59:57;7.50;99.90
16980;DHT22;42288;52.182;21.156;2023-02-17T06:02:22;7.60;99.90
16980;DHT22;42288;52.182;21.156;2023-02-17T06:04:48;7.60;99.90
16980;DHT22;42288;52.182;21.156;2023-02-17T06:07:13;7.30;99.90
16980;DHT22;42288;52.182;21.156;2023-02-17T06:09:39;7.30;99.90
16980;DHT22;42288;52.182;21.156;2023-02-17T06:12:05;7.40;99.90
16980;DHT22;42288;52.182;21.156;2023-02-17T06:14:30;7.60;99.90
16980;DHT22;42288;52.182;21.156;2023-02-17T06:16:56;7.40;99.90
16980;DHT22;42288;52.182;21.156;2023-02-17T06:19:22;7.30;99.90
16980;DHT22;42288;52.182;21.156;2023-02-17T06:21:48;7.20;99.90
16980;DHT22;42288;52.182;21.156;2023-02-17T06:24:14;7.30;99.90
16980;DHT22;42288;52.182;21.156;2023-02-17T06:26:40;7.40;99.90
16980;DHT22;42288;52.182;21.156;2023-02-17T06:29:05;7.40;99.90
16980;DHT22;42288;52.182;21.156;2023-02-17T06:31:31;7.10;99.90
16980;DHT22;42288;52.182;21.156;2023-02-17T06:33:57;7.30;99.90
16980;DHT22;42288;52.182;21.156;2023-02-17T06:36:23;7.30;99.90
16980;DHT22;42288;52.182;21.156;2023-02-17T06:38:48;6.90;99.90
16980;DHT22;42288;52.182;21.156;2023-02-17T06:41:14;6.70;99.90
16980;DHT22;42288;52.182;21.156;2023-02-17T06:43:40;6.70;99.90
16980;DHT22;42288;52.182;21.156;2023-02-17T06:46:05;6.90;99.90
16980;DHT22;42288;52.182;21.156;2023-02-17T06:48:31;6.90;99.90
16980;DHT22;42288;52.182;21.156;2023-02-17T06:50:58;7.10;99.90
16980;DHT22;42288;52.182;21.156;2023-02-17T06:53:24;7.30;99.90
16980;DHT22;42288;52.182;21.156;2023-02-17T06:55:50;7.30;99.90
16980;DHT22;42288;52.182;21.156;2023-02-17T06:58:15;7.40;99.90
16980;DHT22;42288;52.182;21.156;2023-02-17T07:00:41;7.60;99.90
16980;DHT22;42288;52.182;21.156;2023-02-17T07:03:06;7.50;99.90
16980;DHT22;42288;52.182;21.156;2023-02-17T07:05:36;7.40;99.90
16980;DHT22;42288;52.182;21.156;2023-02-17T07:08:03;7.20;99.90
16980;DHT22;42288;52.182;21.156;2023-02-17T07:10:29;7.40;99.90
16980;DHT22;42288;52.182;21.156;2023-02-17T07:12:54;7.40;99.90
16980;DHT22;42288;52.182;21.156;2023-02-17T07:15:20;7.60;99.90
16980;DHT22;42288;52.182;21.156;2023-02-17T07:17:46;7.50;99.90
16980;DHT22;42288;52.182;21.156;2023-02-17T07:20:12;7.60;99.90
16980;DHT22;42288;52.182;21.156;2023-02-17T07:22:38;7.20;99.90
16980;DHT22;42288;52.182;21.156;2023-02-17T07:25:04;7.30;99.90
16980;DHT22;42288;52.182;21.156;2023-02-17T07:27:30;7.40;99.90
16980;DHT22;42288;52.182;21.156;2023-02-17T07:29:56;7.40;99.90
16980;DHT22;42288;52.182;21.156;2023-02-17T07:32:22;7.40;99.90
16980;DHT22;42288;52.182;21.156;2023-02-17T07:34:48;7.70;99.90
16980;DHT22;42288;52.182;21.156;2023-02-17T07:37:13;7.80;99.90
16980;DHT22;42288;52.182;21.156;2023-02-17T07:39:39;7.90;99.90
16980;DHT22;42288;52.182;21.156;2023-02-17T07:42:05;8.00;99.90
16980;DHT22;42288;52.182;21.156;2023-02-17T07:44:31;7.90;99.90
16980;DHT22;42288;52.182;21.156;2023-02-17T07:46:57;8.00;99.90
16980;DHT22;42288;52.182;21.156;2023-02-17T07:49:23;8.10;99.90
16980;DHT22;42288;52.182;21.156;2023-02-17T07:51:49;8.10;99.90
16980;DHT22;42288;52.182;21.156;2023-02-17T07:54:14;8.10;99.90
16980;DHT22;42288;52.182;21.156;2023-02-17T07:56:40;8.10;99.90
16980;DHT22;42288;52.182;21.156;2023-02-17T07:59:10;8.30;99.90
16980;DHT22;42288;52.182;21.156;2023-02-17T08:01:36;8.20;99.90
16980;DHT22;42288;52.182;21.156;2023-02-17T08:04:01;8.30;99.90
16980;DHT22;42288;52.182;21.156;2023-02-17T08:06:27;8.40;99.90
16980;DHT22;42288;52.182;21.156;2023-02-17T08:08:53;8.60;99.90
16980;DHT22;42288;52.182;21.156;2023-02-17T08:11:38;8.60;99.90
16980;DHT22;42288;52.182;21.156;2023-02-17T08:14:24;8.20;99.90
16980;DHT22;42288;52.182;21.156;2023-02-17T08:16:51;8.40;99.90
16980;DHT22;42288;52.182;21.156;2023-02-17T08:19:17;8.10;99.90
16980;DHT22;42288;52.182;21.156;2023-02-17T08:21:43;8.40;99.90
16980;DHT22;42288;52.182;21.156;2023-02-17T08:24:09;8.40;99.90
16980;DHT22;42288;52.182;21.156;2023-02-17T08:26:36;8.80;99.90
16980;DHT22;42288;52.182;21.156;2023-02-17T08:29:02;8.90;99.90
16980;DHT22;42288;52.182;21.156;2023-02-17T08:31:30;8.60;99.90
16980;DHT22;42288;52.182;21.156;2023-02-17T08:33:56;9.10;99.90
16980;DHT22;42288;52.182;21.156;2023-02-17T08:36:22;8.90;99.90
16980;DHT22;42288;52.182;21.156;2023-02-17T08:38:49;9.10;99.90
16980;DHT22;42288;52.182;21.156;2023-02-17T08:41:31;9.20;99.90
16980;DHT22;42288;52.182;21.156;2023-02-17T08:43:59;9.20;99.90
16980;DHT22;42288;52.182;21.156;2023-02-17T08:46:25;9.50;99.90
16980;DHT22;42288;52.182;21.156;2023-02-17T08:48:51;9.20;99.90
16980;DHT22;42288;52.182;21.156;2023-02-17T08:51:19;9.30;99.90
16980;DHT22;42288;52.182;21.156;2023-02-17T08:53:51;9.50;99.90
16980;DHT22;42288;52.182;21.156;2023-02-17T08:56:19;9.50;99.90
16980;DHT22;42288;52.182;21.156;2023-02-17T08:58:45;9.40;99.90
16980;DHT22;42288;52.182;21.156;2023-02-17T09:01:11;9.20;99.90
16980;DHT22;42288;52.182;21.156;2023-02-17T09:03:37;8.80;99.90
16980;DHT22;42288;52.182;21.156;2023-02-17T09:06:04;8.80;99.90
16980;DHT22;42288;52.182;21.156;2023-02-17T09:08:30;9.10;99.90
16980;DHT22;42288;52.182;21.156;2023-02-17T09:10:56;9.40;99.90
16980;DHT22;42288;52.182;21.156;2023-02-17T09:13:22;9.60;99.90
16980;DHT22;42288;52.182;21.156;2023-02-17T09:15:47;9.50;99.90
16980;DHT22;42288;52.182;21.156;2023-02-17T09:18:14;9.80;99.90
16980;DHT22;42288;52.182;21.156;2023-02-17T09:20:40;9.70;99.90
16980;DHT22;42288;52.182;21.156;2023-02-17T09:23:06;9.80;99.90
16980;DHT22;42288;52.182;21.156;2023-02-17T09:25:32;9.70;99.90
16980;DHT22;42288;52.182;21.156;2023-02-17T09:27:58;9.70;99.90
16980;DHT22;42288;52.182;21.156;2023-02-17T09:30:24;9.80;99.90
16980;DHT22;42288;52.182;21.156;2023-02-17T09:32:50;9.70;99.90
16980;DHT22;42288;52.182;21.156;2023-02-17T09:35:16;9.30;99.90
16980;DHT22;42288;52.182;21.156;2023-02-17T09:37:42;9.40;99.90
16980;DHT22;42288;52.182;21.156;2023-02-17T09:40:18;9.60;99.90
16980;DHT22;42288;52.182;21.156;2023-02-17T09:42:45;9.20;99.90
16980;DHT22;42288;52.182;21.156;2023-02-17T09:45:18;9.20;99.90
16980;DHT22;42288;52.182;21.156;2023-02-17T09:48:00;9.40;99.90
16980;DHT22;42288;52.182;21.156;2023-02-17T09:50:54;9.70;99.90
16980;DHT22;42288;52.182;21.156;2023-02-17T09:53:30;9.70;99.90
16980;DHT22;42288;52.182;21.156;2023-02-17T09:56:02;9.80;99.90
16980;DHT22;42288;52.182;21.156;2023-02-17T09:58:39;9.90;99.90
16980;DHT22;42288;52.182;21.156;2023-02-17T10:01:09;10.00;99.90
16980;DHT22;42288;52.182;21.156;2023-02-17T10:06:12;9.70;99.90
16980;DHT22;42288;52.182;21.156;2023-02-17T10:08:55;9.40;99.90
16980;DHT22;42288;52.182;21.156;2023-02-17T10:11:28;9.60;99.90
16980;DHT22;42288;52.182;21.156;2023-02-17T10:13:56;9.70;99.90
16980;DHT22;42288;52.182;21.156;2023-02-17T10:16:29;9.60;99.90
16980;DHT22;42288;52.182;21.156;2023-02-17T10:21:54;9.60;99.90
16980;DHT22;42288;52.182;21.156;2023-02-17T10:24:22;9.50;99.90
16980;DHT22;42288;52.182;21.156;2023-02-17T10:29:49;9.60;99.90
16980;DHT22;42288;52.182;21.156;2023-02-17T10:32:21;9.50;99.90
16980;DHT22;42288;52.182;21.156;2023-02-17T10:35:17;9.40;99.90
16980;DHT22;42288;52.182;21.156;2023-02-17T10:38:16;9.20;99.90
16980;DHT22;42288;52.182;21.156;2023-02-17T10:40:45;9.10;99.90
16980;DHT22;42288;52.182;21.156;2023-02-17T10:43:16;9.20;99.90
16980;DHT22;42288;52.182;21.156;2023-02-17T10:45:46;9.20;99.90
16980;DHT22;42288;52.182;21.156;2023-02-17T10:48:19;9.30;99.90
16980;DHT22;42288;52.182;21.156;2023-02-17T10:50:47;9.50;99.90
16980;DHT22;42288;52.182;21.156;2023-02-17T10:53:22;9.50;99.90
16980;DHT22;42288;52.182;21.156;2023-02-17T11:01:12;9.60;99.90
16980;DHT22;42288;52.182;21.156;2023-02-17T11:03:38;9.70;99.90
16980;DHT22;42288;52.182;21.156;2023-02-17T11:08:45;9.30;99.90
16980;DHT22;42288;52.182;21.156;2023-02-17T11:11:21;9.40;99.90
16980;DHT22;42288;52.182;21.156;2023-02-17T11:16:27;9.20;99.90
16980;DHT22;42288;52.182;21.156;2023-02-17T11:18:54;9.40;99.90
16980;DHT22;42288;52.182;21.156;2023-02-17T11:21:20;9.50;99.90
16980;DHT22;42288;52.182;21.156;2023-02-17T11:24:01;9.30;99.90
16980;DHT22;42288;52.182;21.156;2023-02-17T11:26:29;9.20;99.90
16980;DHT22;42288;52.182;21.156;2023-02-17T11:29:15;9.00;99.90
16980;DHT22;42288;52.182;21.156;2023-02-17T11:34:32;8.90;99.90
16980;DHT22;42288;52.182;21.156;2023-02-17T11:37:14;9.20;99.90
16980;DHT22;42288;52.182;21.156;2023-02-17T11:39:46;9.10;99.90
16980;DHT22;42288;52.182;21.156;2023-02-17T11:42:19;9.20;99.90
16980;DHT22;42288;52.182;21.156;2023-02-17T11:44:45;9.50;99.90
16980;DHT22;42288;52.182;21.156;2023-02-17T11:50:46;9.40;99.90
16980;DHT22;42288;52.182;21.156;2023-02-17T11:56:17;8.80;99.90
16980;DHT22;42288;52.182;21.156;2023-02-17T11:59:10;8.90;99.90
16980;DHT22;42288;52.182;21.156;2023-02-17T12:10:16;9.30;99.90
16980;DHT22;42288;52.182;21.156;2023-02-17T12:23:34;9.50;99.90
16980;DHT22;42288;52.182;21.156;2023-02-17T12:26:25;9.60;99.90
16980;DHT22;42288;52.182;21.156;2023-02-17T12:29:24;9.40;99.90
16980;DHT22;42288;52.182;21.156;2023-02-17T12:34:30;9.40;99.90
16980;DHT22;42288;52.182;21.156;2023-02-17T12:36:59;9.70;99.90
16980;DHT22;42288;52.182;21.156;2023-02-17T12:42:25;9.90;99.90
16980;DHT22;42288;52.182;21.156;2023-02-17T12:45:09;9.90;99.90
16980;DHT22;42288;52.182;21.156;2023-02-17T12:50:37;9.60;99.90
16980;DHT22;42288;52.182;21.156;2023-02-17T12:53:10;9.50;99.90
16980;DHT22;42288;52.182;21.156;2023-02-17T12:55:55;9.40;99.90
16980;DHT22;42288;52.182;21.156;2023-02-17T12:58:27;9.40;99.90
16980;DHT22;42288;52.182;21.156;2023-02-17T13:01:08;9.50;99.90
16980;DHT22;42288;52.182;21.156;2023-02-17T13:03:35;9.60;99.90
16980;DHT22;42288;52.182;21.156;2023-02-17T13:06:24;9.40;99.90
16980;DHT22;42288;52.182;21.156;2023-02-17T13:08:56;9.70;99.90
16980;DHT22;42288;52.182;21.156;2023-02-17T13:11:28;9.70;99.90
16980;DHT22;42288;52.182;21.156;2023-02-17T13:13:54;9.70;99.90
16980;DHT22;42288;52.182;21.156;2023-02-17T13:16:19;9.60;99.90
16980;DHT22;42288;52.182;21.156;2023-02-17T13:18:47;9.40;99.90
16980;DHT22;42288;52.182;21.156;2023-02-17T13:23:44;9.60;99.90
16980;DHT22;42288;52.182;21.156;2023-02-17T13:32:36;9.80;99.90
16980;DHT22;42288;52.182;21.156;2023-02-17T13:35:06;9.60;99.90
16980;DHT22;42288;52.182;21.156;2023-02-17T13:42:52;9.50;99.90
16980;DHT22;42288;52.182;21.156;2023-02-17T13:45:30;9.50;99.90
16980;DHT22;42288;52.182;21.156;2023-02-17T13:47:59;9.70;99.90
16980;DHT22;42288;52.182;21.156;2023-02-17T13:50:37;9.60;99.90
16980;DHT22;42288;52.182;21.156;2023-02-17T13:55:48;9.60;99.90
16980;DHT22;42288;52.182;21.156;2023-02-17T13:58:24;9.60;99.90
16980;DHT22;42288;52.182;21.156;2023-02-17T14:00:52;9.60;99.90
16980;DHT22;42288;52.182;21.156;2023-02-17T14:03:26;9.80;99.90
16980;DHT22;42288;52.182;21.156;2023-02-17T14:05:55;9.60;99.90
16980;DHT22;42288;52.182;21.156;2023-02-17T14:11:18;9.50;99.90
16980;DHT22;42288;52.182;21.156;2023-02-17T14:13:46;9.30;99.90
16980;DHT22;42288;52.182;21.156;2023-02-17T14:16:34;9.30;99.90
16980;DHT22;42288;52.182;21.156;2023-02-17T14:19:17;9.20;99.90
16980;DHT22;42288;52.182;21.156;2023-02-17T14:21:56;9.40;99.90
16980;DHT22;42288;52.182;21.156;2023-02-17T14:27:11;9.40;99.90
16980;DHT22;42288;52.182;21.156;2023-02-17T14:29:46;9.50;99.90
16980;DHT22;42288;52.182;21.156;2023-02-17T14:32:32;9.40;99.90
16980;DHT22;42288;52.182;21.156;2023-02-17T14:37:34;9.40;99.90
16980;DHT22;42288;52.182;21.156;2023-02-17T14:40:03;9.60;99.90
16980;DHT22;42288;52.182;21.156;2023-02-17T14:42:29;9.30;99.90
16980;DHT22;42288;52.182;21.156;2023-02-17T14:44:54;9.20;99.90
16980;DHT22;42288;52.182;21.156;2023-02-17T14:47:20;9.20;99.90
16980;DHT22;42288;52.182;21.156;2023-02-17T14:49:45;9.30;99.90
16980;DHT22;42288;52.182;21.156;2023-02-17T14:52:22;9.30;99.90
16980;DHT22;42288;52.182;21.156;2023-02-17T14:54:49;9.40;99.90
16980;DHT22;42288;52.182;21.156;2023-02-17T14:57:15;9.20;99.90
16980;DHT22;42288;52.182;21.156;2023-02-17T14:59:42;9.10;99.90
16980;DHT22;42288;52.182;21.156;2023-02-17T15:02:17;9.10;99.90
16980;DHT22;42288;52.182;21.156;2023-02-17T15:04:43;9.20;99.90
16980;DHT22;42288;52.182;21.156;2023-02-17T15:07:12;9.20;99.90
16980;DHT22;42288;52.182;21.156;2023-02-17T15:09:38;9.30;99.90
16980;DHT22;42288;52.182;21.156;2023-02-17T15:12:13;9.30;99.90
16980;DHT22;42288;52.182;21.156;2023-02-17T15:14:39;9.20;99.90
16980;DHT22;42288;52.182;21.156;2023-02-17T15:17:05;9.30;99.90
16980;DHT22;42288;52.182;21.156;2023-02-17T15:19:31;9.40;99.90
16980;DHT22;42288;52.182;21.156;2023-02-17T15:21:56;9.40;99.90
16980;DHT22;42288;52.182;21.156;2023-02-17T15:24:26;9.50;99.90
16980;DHT22;42288;52.182;21.156;2023-02-17T15:26:53;9.30;99.90
16980;DHT22;42288;52.182;21.156;2023-02-17T15:29:21;9.20;99.90
16980;DHT22;42288;52.182;21.156;2023-02-17T15:31:48;9.30;99.90
16980;DHT22;42288;52.182;21.156;2023-02-17T15:34:16;9.30;99.90
16980;DHT22;42288;52.182;21.156;2023-02-17T15:36:42;9.20;99.90
16980;DHT22;42288;52.182;21.156;2023-02-17T15:39:10;9.30;99.90
16980;DHT22;42288;52.182;21.156;2023-02-17T15:41:36;9.20;99.90
16980;DHT22;42288;52.182;21.156;2023-02-17T15:44:02;9.10;99.90
16980;DHT22;42288;52.182;21.156;2023-02-17T15:46:31;9.00;99.90
16980;DHT22;42288;52.182;21.156;2023-02-17T15:48:57;9.00;99.90
16980;DHT22;42288;52.182;21.156;2023-02-17T15:51:23;9.10;99.90
16980;DHT22;42288;52.182;21.156;2023-02-17T15:53:50;9.00;99.90
16980;DHT22;42288;52.182;21.156;2023-02-17T15:58:42;9.00;99.90
16980;DHT22;42288;52.182;21.156;2023-02-17T16:01:32;9.00;99.90
16980;DHT22;42288;52.182;21.156;2023-02-17T16:03:58;9.00;99.90
16980;DHT22;42288;52.182;21.156;2023-02-17T16:06:27;8.90;99.90
16980;DHT22;42288;52.182;21.156;2023-02-17T16:08:53;8.90;99.90
16980;DHT22;42288;52.182;21.156;2023-02-17T16:11:20;8.80;99.90
16980;DHT22;42288;52.182;21.156;2023-02-17T16:13:47;8.90;99.90
16980;DHT22;42288;52.182;21.156;2023-02-17T16:16:39;9.00;99.90
16980;DHT22;42288;52.182;21.156;2023-02-17T16:19:04;8.90;99.90
16980;DHT22;42288;52.182;21.156;2023-02-17T16:21:30;8.90;99.90
16980;DHT22;42288;52.182;21.156;2023-02-17T16:23:55;9.00;99.90
16980;DHT22;42288;52.182;21.156;2023-02-17T16:26:32;9.10;99.90
16980;DHT22;42288;52.182;21.156;2023-02-17T16:29:16;9.10;99.90
16980;DHT22;42288;52.182;21.156;2023-02-17T16:31:42;9.00;99.90
16980;DHT22;42288;52.182;21.156;2023-02-17T16:34:22;9.10;99.90
16980;DHT22;42288;52.182;21.156;2023-02-17T16:36:50;9.00;99.90
16980;DHT22;42288;52.182;21.156;2023-02-17T16:39:18;9.10;99.90
16980;DHT22;42288;52.182;21.156;2023-02-17T16:41:45;9.00;99.90
16980;DHT22;42288;52.182;21.156;2023-02-17T16:44:12;8.90;99.90
16980;DHT22;42288;52.182;21.156;2023-02-17T16:46:38;8.90;99.90
16980;DHT22;42288;52.182;21.156;2023-02-17T16:49:38;9.00;99.90
16980;DHT22;42288;52.182;21.156;2023-02-17T16:52:21;8.90;99.90
16980;DHT22;42288;52.182;21.156;2023-02-17T16:54:47;9.00;99.90
16980;DHT22;42288;52.182;21.156;2023-02-17T16:57:17;8.80;99.90
16980;DHT22;42288;52.182;21.156;2023-02-17T16:59:43;8.70;99.90
16980;DHT22;42288;52.182;21.156;2023-02-17T17:02:10;8.80;99.90
16980;DHT22;42288;52.182;21.156;2023-02-17T17:04:36;8.70;99.90
16980;DHT22;42288;52.182;21.156;2023-02-17T17:07:02;8.60;99.90
16980;DHT22;42288;52.182;21.156;2023-02-17T17:09:27;8.70;99.90
16980;DHT22;42288;52.182;21.156;2023-02-17T17:11:55;8.80;99.90
16980;DHT22;42288;52.182;21.156;2023-02-17T17:14:20;8.70;99.90
16980;DHT22;42288;52.182;21.156;2023-02-17T17:16:50;8.70;99.90
16980;DHT22;42288;52.182;21.156;2023-02-17T17:19:16;8.70;99.90
16980;DHT22;42288;52.182;21.156;2023-02-17T17:21:42;8.70;99.90
16980;DHT22;42288;52.182;21.156;2023-02-17T17:24:08;8.70;99.90
16980;DHT22;42288;52.182;21.156;2023-02-17T17:26:39;8.70;99.90